Mckinley Sea — WDE5024 — position and weather

sailwx.info

Track history (hours):
 
Tides and Currents Weather Stations Pressure Air Temp Water Temp Dewpoint Dewpoint Depression Visibility Wind Speed Wind Dir Waves Ship Positions

Mckinley Sea

Owner: Kirby Offshore Marine, LLC, Staten Island, NY. More information available from US FCC via Universal Licensing System and Coast Guard Vessel Documentation Center.

Last reported at 2014-Dec-22 17:26 UTC. Time now 2014-Dec-22 18:31 UTC.
Position N 40°39' W 072°56'.

Length 46 m; draft 7 m.

Type: Towing. MMSI: 367360980.

Date/timePositionNaut miles runAvg speedWind from/ knotsBaromVisibWave heightAir tempDewpointWater temp
2014-Dec-22 17:26N 40°39' W 072°56'6 6.9
2014-Dec-22 16:30N 40°37' W 073°04'7 7.2
2014-Dec-22 15:29N 40°35' W 073°13'8 7.1
2014-Dec-22 14:23N 40°33' W 073°23'6 7.1
2014-Dec-22 13:32N 40°33' W 073°31'7 6.9
2014-Dec-22 12:32N 40°31' W 073°40'12 6.0
2014-Dec-22 10:33N 40°27' W 073°54'5 4.9
2014-Dec-22 09:28N 40°29' W 074°01'6 5.6
2014-Dec-22 08:23N 40°30' W 074°09'5 2.4
2014-Dec-22 06:11N 40°33' W 074°14'0 0.1
2014-Dec-22 05:32N 40°34' W 074°14'0 0.0
2014-Dec-22 04:30N 40°34' W 074°14'4 4.0
2014-Dec-22 03:30N 40°37' W 074°12'5 1.6
2014-Dec-22 00:33N 40°39' W 074°07'2 1.5
2014-Dec-21 23:33N 40°39' W 074°09'7 6.6
2014-Dec-21 22:33N 40°33' W 074°14'0 0.1
2014-Dec-21 21:30N 40°33' W 074°14'0 0.0
2014-Dec-21 15:17N 40°33' W 074°14'0 0.1
2014-Dec-21 14:17N 40°34' W 074°14'3 0.6
2014-Dec-21 08:20N 40°30' W 074°12'2 2.3
2014-Dec-21 07:20N 40°30' W 074°09'0 0.1
2014-Dec-21 06:27N 40°30' W 074°09'0 0.0
2014-Dec-21 05:31N 40°30' W 074°09'0 0.0
2014-Dec-21 04:33N 40°30' W 074°09'0 0.0
2014-Dec-21 03:32N 40°30' W 074°09'0 0.0
2014-Dec-21 02:33N 40°30' W 074°09'0 0.0
2014-Dec-21 01:11N 40°30' W 074°09'0 0.2
2014-Dec-21 00:32N 40°30' W 074°09'0 0.2
2014-Dec-20 23:31N 40°30' W 074°09'0 0.0
2014-Dec-20 20:05N 40°30' W 074°09'5 8.2
2014-Dec-20 19:27N 40°29' W 074°03'8 8.8
2014-Dec-20 18:32N 40°27' W 073°52'11 9.3
2014-Dec-20 17:19N 40°30' W 073°38'17 9.3
2014-Dec-20 15:31N 40°33' W 073°16'13 9.3
2014-Dec-20 14:08N 40°37' W 072°60'25 9.4
2014-Dec-20 11:30N 40°46' W 072°29'9 9.4
2014-Dec-20 10:33N 40°49' W 072°19'9 9.5
2014-Dec-20 09:33N 40°53' W 072°07'10 9.5
2014-Dec-20 08:33N 40°57' W 071°55'1010.0
2014-Dec-20 07:33N 41°00' W 071°43'10 9.7
2014-Dec-20 06:33N 41°05' W 071°32'10 9.7
2014-Dec-20 05:33N 41°11' W 071°21'10 9.6
2014-Dec-20 04:33N 41°18' W 071°13'88 8.5
2014-Dec-19 18:14N 42°40' W 070°31'710.1
2014-Dec-19 17:33N 42°46' W 070°35'19 9.7
2014-Dec-19 15:34N 43°05' W 070°43'2 0.1
2014-Dec-18 20:31N 43°05' W 070°45'9 3.9
2014-Dec-18 18:17N 42°57' W 070°40'4 4.8
2014-Dec-18 17:32N 42°54' W 070°38'5 4.9
2014-Dec-18 16:33N 42°49' W 070°36'84 6.2
2014-Dec-18 03:10N 41°27' W 070°59'12 7.3
2014-Dec-18 01:33N 41°19' W 071°10'8 7.6
2014-Dec-18 00:34N 41°13' W 071°16'7 7.5
2014-Dec-17 23:33N 41°07' W 071°23'8 7.5
2014-Dec-17 22:33N 41°04' W 071°32'7 7.3
2014-Dec-17 21:33N 41°01' W 071°41'7 7.1
2014-Dec-17 20:33N 40°58' W 071°49'7 7.2
2014-Dec-17 19:33N 40°55' W 071°58'7 7.1
2014-Dec-17 18:33N 40°52' W 072°06'7 7.1
2014-Dec-17 17:33N 40°50' W 072°15'7 7.0
2014-Dec-17 16:33N 40°47' W 072°24'7 7.2
2014-Dec-17 15:33N 40°44' W 072°32'7 7.3
2014-Dec-17 14:33N 40°41' W 072°41'16 7.4
2014-Dec-17 12:21N 40°35' W 073°01'24 7.3
2014-Dec-17 09:07N 40°30' W 073°32'24 6.2
2014-Dec-17 05:13N 40°29' W 074°03'4 6.2
2014-Dec-17 04:31N 40°30' W 074°09'6 1.7
2014-Dec-17 01:11N 40°34' W 074°14'5 1.6
2014-Dec-16 22:04N 40°38' W 074°12'1 0.6
2014-Dec-16 19:28N 40°39' W 074°10'0 0.1
2014-Dec-16 17:31N 40°39' W 074°10'6 1.4
2014-Dec-16 13:11N 40°34' W 074°14'0 0.0
2014-Dec-16 06:26N 40°34' W 074°14'7 1.3
2014-Dec-16 01:22N 40°39' W 074°08'4 4.6
2014-Dec-16 00:26N 40°39' W 074°03'0 0.0
2014-Dec-15 23:33N 40°39' W 074°03'0 0.0
2014-Dec-15 22:34N 40°39' W 074°03'0 0.2
2014-Dec-15 21:33N 40°39' W 074°03'0 0.1
2014-Dec-15 20:33N 40°39' W 074°03'0 0.0
2014-Dec-15 19:33N 40°39' W 074°03'0 0.1
2014-Dec-15 18:33N 40°39' W 074°03'0 0.2
2014-Dec-15 17:33N 40°39' W 074°03'0 0.1
2014-Dec-15 16:33N 40°39' W 074°03'0 0.0
2014-Dec-15 15:33N 40°39' W 074°03'0 0.0
2014-Dec-15 14:33N 40°39' W 074°03'0 0.0
2014-Dec-15 13:33N 40°39' W 074°03'0 0.0
2014-Dec-15 12:33N 40°39' W 074°03'0 0.0
2014-Dec-15 11:33N 40°39' W 074°03'0 0.0
2014-Dec-15 10:33N 40°39' W 074°03'0 0.1
2014-Dec-15 09:33N 40°39' W 074°03'0 0.2
2014-Dec-15 08:33N 40°39' W 074°03'0 0.0
2014-Dec-15 07:33N 40°39' W 074°03'0 0.0
2014-Dec-15 06:33N 40°39' W 074°03'0 0.1
2014-Dec-15 05:33N 40°39' W 074°03'0 0.1
2014-Dec-15 04:33N 40°39' W 074°03'0 0.0
2014-Dec-15 03:33N 40°39' W 074°03'0 0.0
2014-Dec-15 02:33N 40°39' W 074°03'0 0.0
2014-Dec-15 01:33N 40°39' W 074°03'0 0.0
2014-Dec-15 00:33N 40°39' W 074°03'0 0.0
2014-Dec-14 23:33N 40°39' W 074°03'0 0.0
2014-Dec-14 22:33N 40°39' W 074°03'0 0.0
2014-Dec-14 21:33N 40°39' W 074°03'0 0.0
2014-Dec-14 20:33N 40°39' W 074°03'0 0.0
2014-Dec-14 19:33N 40°39' W 074°03'0 0.1
2014-Dec-14 18:33N 40°39' W 074°03'0 0.0
2014-Dec-14 17:33N 40°39' W 074°03'0 0.0
2014-Dec-14 16:33N 40°39' W 074°03'0 0.0
2014-Dec-14 15:33N 40°39' W 074°03'0 0.0
2014-Dec-14 14:33N 40°39' W 074°03'0 0.1
2014-Dec-14 13:33N 40°39' W 074°03'0 0.0
2014-Dec-14 12:33N 40°39' W 074°03'0 0.0
2014-Dec-14 11:33N 40°39' W 074°03'0 0.0
2014-Dec-14 10:33N 40°39' W 074°03'0 0.0
2014-Dec-14 09:33N 40°39' W 074°03'0 0.1
2014-Dec-14 08:33N 40°39' W 074°03'0 0.2
2014-Dec-14 07:33N 40°39' W 074°03'0 0.0
2014-Dec-14 06:33N 40°39' W 074°03'0 0.0
2014-Dec-14 05:33N 40°39' W 074°03'0 0.1
2014-Dec-14 04:33N 40°39' W 074°03'0 0.0
2014-Dec-14 03:33N 40°39' W 074°03'0 0.0
2014-Dec-14 02:33N 40°39' W 074°03'0 0.0
2014-Dec-14 01:33N 40°39' W 074°03'0 0.0
2014-Dec-14 00:33N 40°39' W 074°03'0 0.0
2014-Dec-13 23:33N 40°39' W 074°03'0 0.0
2014-Dec-13 22:33N 40°39' W 074°03'0 0.0
2014-Dec-13 21:33N 40°39' W 074°03'0 0.0
2014-Dec-13 20:33N 40°39' W 074°03'3 2.8
2014-Dec-13 19:33N 40°39' W 074°06'3 1.2
2014-Dec-13 17:26N 40°39' W 074°10'4 4.8
2014-Dec-13 16:33N 40°39' W 074°04'4 2.9
2014-Dec-13 15:07N 40°39' W 074°10'0 0.0
2014-Dec-13 14:30N 40°39' W 074°10'5 5.9
2014-Dec-13 13:33N 40°39' W 074°03'0 0.0
2014-Dec-13 12:33N 40°39' W 074°03'0 0.1
2014-Dec-13 11:33N 40°39' W 074°03'0 0.0
2014-Dec-13 10:33N 40°39' W 074°03'0 0.0
2014-Dec-13 09:33N 40°39' W 074°03'1 1.0
2014-Dec-13 08:33N 40°38' W 074°03'8 7.8
2014-Dec-13 07:33N 40°31' W 073°59'47 8.9
2014-Dec-13 02:16N 40°39' W 072°58'19 9.3
2014-Dec-13 00:16N 40°45' W 072°35'7 9.3
2014-Dec-12 23:33N 40°48' W 072°27'9 9.2
2014-Dec-12 22:33N 40°52' W 072°15'9 9.2
2014-Dec-12 21:33N 40°55' W 072°04'9 9.0
2014-Dec-12 20:33N 40°58' W 071°53'9 8.9
2014-Dec-12 19:33N 41°01' W 071°42'8 8.5
2014-Dec-12 18:33N 41°06' W 071°33'9 8.6
2014-Dec-12 17:33N 41°10' W 071°22'  
Track history (hours):
 
Tides and Currents Weather Stations Pressure Air Temp Water Temp Dewpoint Dewpoint Depression Visibility Wind Speed Wind Dir Waves Ship Positions

Mckinley Sea

Owner: Kirby Offshore Marine, LLC, Staten Island, NY. More information available from US FCC via Universal Licensing System and Coast Guard Vessel Documentation Center.

Last reported at 2014-Dec-22 17:26 UTC. Time now 2014-Dec-22 18:31 UTC.
Position N 40°39' W 072°56'.

Length 46 m; draft 7 m.

Type: Towing. MMSI: 367360980.

Date/timePositionNaut miles runAvg speedWind from/ knotsBaromVisibWave heightAir tempDewpointWater temp
2014-Dec-22 17:26N 40°39' W 072°56'6 6.9
2014-Dec-22 16:30N 40°37' W 073°04'7 7.2
2014-Dec-22 15:29N 40°35' W 073°13'8 7.1
2014-Dec-22 14:23N 40°33' W 073°23'6 7.1
2014-Dec-22 13:32N 40°33' W 073°31'7 6.9
2014-Dec-22 12:32N 40°31' W 073°40'12 6.0
2014-Dec-22 10:33N 40°27' W 073°54'5 4.9
2014-Dec-22 09:28N 40°29' W 074°01'6 5.6
2014-Dec-22 08:23N 40°30' W 074°09'5 2.4
2014-Dec-22 06:11N 40°33' W 074°14'0 0.1
2014-Dec-22 05:32N 40°34' W 074°14'0 0.0
2014-Dec-22 04:30N 40°34' W 074°14'4 4.0
2014-Dec-22 03:30N 40°37' W 074°12'5 1.6
2014-Dec-22 00:33N 40°39' W 074°07'2 1.5
2014-Dec-21 23:33N 40°39' W 074°09'7 6.6
2014-Dec-21 22:33N 40°33' W 074°14'0 0.1
2014-Dec-21 21:30N 40°33' W 074°14'0 0.0
2014-Dec-21 15:17N 40°33' W 074°14'0 0.1
2014-Dec-21 14:17N 40°34' W 074°14'3 0.6
2014-Dec-21 08:20N 40°30' W 074°12'2 2.3
2014-Dec-21 07:20N 40°30' W 074°09'0 0.1
2014-Dec-21 06:27N 40°30' W 074°09'0 0.0
2014-Dec-21 05:31N 40°30' W 074°09'0 0.0
2014-Dec-21 04:33N 40°30' W 074°09'0 0.0
2014-Dec-21 03:32N 40°30' W 074°09'0 0.0
2014-Dec-21 02:33N 40°30' W 074°09'0 0.0
2014-Dec-21 01:11N 40°30' W 074°09'0 0.2
2014-Dec-21 00:32N 40°30' W 074°09'0 0.2
2014-Dec-20 23:31N 40°30' W 074°09'0 0.0
2014-Dec-20 20:05N 40°30' W 074°09'5 8.2
2014-Dec-20 19:27N 40°29' W 074°03'8 8.8
2014-Dec-20 18:32N 40°27' W 073°52'11 9.3
2014-Dec-20 17:19N 40°30' W 073°38'17 9.3
2014-Dec-20 15:31N 40°33' W 073°16'13 9.3
2014-Dec-20 14:08N 40°37' W 072°60'25 9.4
2014-Dec-20 11:30N 40°46' W 072°29'9 9.4
2014-Dec-20 10:33N 40°49' W 072°19'9 9.5
2014-Dec-20 09:33N 40°53' W 072°07'10 9.5
2014-Dec-20 08:33N 40°57' W 071°55'1010.0
2014-Dec-20 07:33N 41°00' W 071°43'10 9.7
2014-Dec-20 06:33N 41°05' W 071°32'10 9.7
2014-Dec-20 05:33N 41°11' W 071°21'10 9.6
2014-Dec-20 04:33N 41°18' W 071°13'88 8.5
2014-Dec-19 18:14N 42°40' W 070°31'710.1
2014-Dec-19 17:33N 42°46' W 070°35'19 9.7
2014-Dec-19 15:34N 43°05' W 070°43'2 0.1
2014-Dec-18 20:31N 43°05' W 070°45'9 3.9
2014-Dec-18 18:17N 42°57' W 070°40'4 4.8
2014-Dec-18 17:32N 42°54' W 070°38'5 4.9
2014-Dec-18 16:33N 42°49' W 070°36'84 6.2
2014-Dec-18 03:10N 41°27' W 070°59'12 7.3
2014-Dec-18 01:33N 41°19' W 071°10'8 7.6
2014-Dec-18 00:34N 41°13' W 071°16'7 7.5
2014-Dec-17 23:33N 41°07' W 071°23'8 7.5
2014-Dec-17 22:33N 41°04' W 071°32'7 7.3
2014-Dec-17 21:33N 41°01' W 071°41'7 7.1
2014-Dec-17 20:33N 40°58' W 071°49'7 7.2
2014-Dec-17 19:33N 40°55' W 071°58'7 7.1
2014-Dec-17 18:33N 40°52' W 072°06'7 7.1
2014-Dec-17 17:33N 40°50' W 072°15'7 7.0
2014-Dec-17 16:33N 40°47' W 072°24'7 7.2
2014-Dec-17 15:33N 40°44' W 072°32'7 7.3
2014-Dec-17 14:33N 40°41' W 072°41'16 7.4
2014-Dec-17 12:21N 40°35' W 073°01'24 7.3
2014-Dec-17 09:07N 40°30' W 073°32'24 6.2
2014-Dec-17 05:13N 40°29' W 074°03'4 6.2
2014-Dec-17 04:31N 40°30' W 074°09'6 1.7
2014-Dec-17 01:11N 40°34' W 074°14'5 1.6
2014-Dec-16 22:04N 40°38' W 074°12'1 0.6
2014-Dec-16 19:28N 40°39' W 074°10'0 0.1
2014-Dec-16 17:31N 40°39' W 074°10'6 1.4
2014-Dec-16 13:11N 40°34' W 074°14'0 0.0
2014-Dec-16 06:26N 40°34' W 074°14'7 1.3
2014-Dec-16 01:22N 40°39' W 074°08'4 4.6
2014-Dec-16 00:26N 40°39' W 074°03'0 0.0
2014-Dec-15 23:33N 40°39' W 074°03'0 0.0
2014-Dec-15 22:34N 40°39' W 074°03'0 0.2
2014-Dec-15 21:33N 40°39' W 074°03'0 0.1
2014-Dec-15 20:33N 40°39' W 074°03'0 0.0
2014-Dec-15 19:33N 40°39' W 074°03'0 0.1
2014-Dec-15 18:33N 40°39' W 074°03'0 0.2
2014-Dec-15 17:33N 40°39' W 074°03'0 0.1
2014-Dec-15 16:33N 40°39' W 074°03'0 0.0
2014-Dec-15 15:33N 40°39' W 074°03'0 0.0
2014-Dec-15 14:33N 40°39' W 074°03'0 0.0
2014-Dec-15 13:33N 40°39' W 074°03'0 0.0
2014-Dec-15 12:33N 40°39' W 074°03'0 0.0
2014-Dec-15 11:33N 40°39' W 074°03'0 0.0
2014-Dec-15 10:33N 40°39' W 074°03'0 0.1
2014-Dec-15 09:33N 40°39' W 074°03'0 0.2
2014-Dec-15 08:33N 40°39' W 074°03'0 0.0
2014-Dec-15 07:33N 40°39' W 074°03'0 0.0
2014-Dec-15 06:33N 40°39' W 074°03'0 0.1
2014-Dec-15 05:33N 40°39' W 074°03'0 0.1
2014-Dec-15 04:33N 40°39' W 074°03'0 0.0
2014-Dec-15 03:33N 40°39' W 074°03'0 0.0
2014-Dec-15 02:33N 40°39' W 074°03'0 0.0
2014-Dec-15 01:33N 40°39' W 074°03'0 0.0
2014-Dec-15 00:33N 40°39' W 074°03'0 0.0
2014-Dec-14 23:33N 40°39' W 074°03'0 0.0
2014-Dec-14 22:33N 40°39' W 074°03'0 0.0
2014-Dec-14 21:33N 40°39' W 074°03'0 0.0
2014-Dec-14 20:33N 40°39' W 074°03'0 0.0
2014-Dec-14 19:33N 40°39' W 074°03'0 0.1
2014-Dec-14 18:33N 40°39' W 074°03'0 0.0
2014-Dec-14 17:33N 40°39' W 074°03'0 0.0
2014-Dec-14 16:33N 40°39' W 074°03'0 0.0
2014-Dec-14 15:33N 40°39' W 074°03'0 0.0
2014-Dec-14 14:33N 40°39' W 074°03'0 0.1
2014-Dec-14 13:33N 40°39' W 074°03'0 0.0
2014-Dec-14 12:33N 40°39' W 074°03'0 0.0
2014-Dec-14 11:33N 40°39' W 074°03'0 0.0
2014-Dec-14 10:33N 40°39' W 074°03'0 0.0
2014-Dec-14 09:33N 40°39' W 074°03'0 0.1
2014-Dec-14 08:33N 40°39' W 074°03'0 0.2
2014-Dec-14 07:33N 40°39' W 074°03'0 0.0
2014-Dec-14 06:33N 40°39' W 074°03'0 0.0
2014-Dec-14 05:33N 40°39' W 074°03'0 0.1
2014-Dec-14 04:33N 40°39' W 074°03'0 0.0
2014-Dec-14 03:33N 40°39' W 074°03'0 0.0
2014-Dec-14 02:33N 40°39' W 074°03'0 0.0
2014-Dec-14 01:33N 40°39' W 074°03'0 0.0
2014-Dec-14 00:33N 40°39' W 074°03'0 0.0
2014-Dec-13 23:33N 40°39' W 074°03'0 0.0
2014-Dec-13 22:33N 40°39' W 074°03'0 0.0
2014-Dec-13 21:33N 40°39' W 074°03'0 0.0
2014-Dec-13 20:33N 40°39' W 074°03'3 2.8
2014-Dec-13 19:33N 40°39' W 074°06'3 1.2
2014-Dec-13 17:26N 40°39' W 074°10'4 4.8
2014-Dec-13 16:33N 40°39' W 074°04'4 2.9
2014-Dec-13 15:07N 40°39' W 074°10'0 0.0
2014-Dec-13 14:30N 40°39' W 074°10'5 5.9
2014-Dec-13 13:33N 40°39' W 074°03'0 0.0
2014-Dec-13 12:33N 40°39' W 074°03'0 0.1
2014-Dec-13 11:33N 40°39' W 074°03'0 0.0
2014-Dec-13 10:33N 40°39' W 074°03'0 0.0
2014-Dec-13 09:33N 40°39' W 074°03'1 1.0
2014-Dec-13 08:33N 40°38' W 074°03'8 7.8
2014-Dec-13 07:33N 40°31' W 073°59'47 8.9
2014-Dec-13 02:16N 40°39' W 072°58'19 9.3
2014-Dec-13 00:16N 40°45' W 072°35'7 9.3
2014-Dec-12 23:33N 40°48' W 072°27'9 9.2
2014-Dec-12 22:33N 40°52' W 072°15'9 9.2
2014-Dec-12 21:33N 40°55' W 072°04'9 9.0
2014-Dec-12 20:33N 40°58' W 071°53'9 8.9
2014-Dec-12 19:33N 41°01' W 071°42'8 8.5
2014-Dec-12 18:33N 41°06' W 071°33'9 8.6
2014-Dec-12 17:33N 41°10' W 071°22'  

Dump ship's entire track history